createdAt,value
2019-01-20T00:00:12.499Z,0.28
2019-01-20T00:00:38.606Z,0.25
2019-01-20T00:01:04.709Z,0.18
2019-01-20T00:01:30.808Z,0.37
2019-01-20T00:01:56.914Z,0.31
2019-01-20T00:02:23.024Z,0.34
2019-01-20T00:02:49.153Z,0.31
2019-01-20T00:03:15.247Z,0.34
2019-01-20T00:03:41.343Z,0.31
2019-01-20T00:04:07.476Z,0.34
2019-01-20T00:04:33.580Z,0.31
2019-01-20T00:04:59.682Z,0.21
2019-01-20T00:05:25.779Z,0.28
2019-01-20T00:05:51.888Z,0.16
2019-01-20T00:06:17.996Z,0.28
2019-01-20T00:06:44.120Z,0.23
2019-01-20T00:07:10.230Z,0.23
2019-01-20T00:07:36.326Z,0.23
2019-01-20T00:08:02.431Z,0.18
2019-01-20T00:08:28.538Z,0.34
2019-01-20T00:08:54.638Z,0.19
2019-01-20T00:09:20.745Z,0.22
2019-01-20T00:09:46.846Z,0.15
2019-01-20T00:10:12.978Z,0.19
2019-01-20T00:10:39.085Z,0.22
2019-01-20T00:11:05.215Z,0.19
2019-01-20T00:11:32.321Z,0.31
2019-01-20T00:11:58.426Z,0.18
2019-01-20T00:12:24.530Z,0.18
2019-01-20T00:12:50.632Z,0.31
2019-01-20T00:13:16.739Z,0.18
2019-01-20T00:13:42.841Z,0.19
2019-01-20T00:14:08.937Z,0.28
2019-01-20T00:14:35.045Z,0.22
2019-01-20T00:15:01.147Z,0.23
2019-01-20T00:15:27.276Z,0.29
2019-01-20T00:15:53.381Z,0.21
2019-01-20T00:16:19.488Z,0.23
2019-01-20T00:16:45.641Z,0.23
2019-01-20T00:17:11.735Z,0.19
2019-01-20T00:17:37.843Z,0.23
2019-01-20T00:18:03.943Z,0.19
2019-01-20T00:18:30.046Z,0.26
2019-01-20T00:18:56.150Z,0.21
2019-01-20T00:19:22.248Z,0.22
2019-01-20T00:19:48.359Z,0.21
2019-01-20T00:20:14.548Z,0.19
2019-01-20T00:20:40.749Z,0.16
2019-01-20T00:21:06.852Z,0.16
2019-01-20T00:21:32.960Z,0.16
2019-01-20T00:21:59.063Z,0.25
2019-01-20T00:22:25.169Z,0.16
2019-01-20T00:22:51.273Z,0.15
2019-01-20T00:23:17.401Z,0.16
2019-01-20T00:23:43.508Z,0.21
2019-01-20T00:24:09.619Z,0.15
2019-01-20T00:24:35.746Z,0.12
2019-01-20T00:25:01.890Z,0.11
2019-01-20T00:25:28.030Z,0.04
2019-01-20T00:25:54.172Z,0.08
2019-01-20T00:26:20.308Z,0.01
2019-01-20T00:26:46.408Z,0.01
2019-01-20T00:27:12.508Z,0
2019-01-20T00:27:38.609Z,0.03
2019-01-20T00:28:04.717Z,-0.02
2019-01-20T00:28:30.823Z,-0.07
2019-01-20T00:28:56.924Z,0
2019-01-20T00:29:23.023Z,0.01
2019-01-20T00:29:49.126Z,0.08
2019-01-20T00:30:15.228Z,-0.06
2019-01-20T00:30:41.331Z,0
2019-01-20T00:31:07.424Z,-0.03
2019-01-20T00:31:33.526Z,-0.06
2019-01-20T00:31:59.636Z,-0.03
2019-01-20T00:32:25.731Z,-0.07
2019-01-20T00:32:51.843Z,-0.02
2019-01-20T00:33:17.977Z,-0.02
2019-01-20T00:33:44.079Z,-0.07
2019-01-20T00:34:10.207Z,0
2019-01-20T00:34:36.341Z,0.01
2019-01-20T00:35:02.476Z,-0.03
2019-01-20T00:35:28.576Z,-0.03
2019-01-20T00:35:54.686Z,-0.03
2019-01-20T00:36:20.796Z,-0.02
2019-01-20T00:36:46.896Z,0
2019-01-20T00:37:12.998Z,0
2019-01-20T00:37:39.105Z,-0.02
2019-01-20T00:38:05.213Z,-0.1
2019-01-20T00:38:31.315Z,-0.08
2019-01-20T00:38:57.419Z,-0.03
2019-01-20T00:39:23.524Z,-0.13
2019-01-20T00:39:49.616Z,-0.08
2019-01-20T00:40:15.856Z,-0.08
2019-01-20T00:40:41.955Z,-0.08
2019-01-20T00:41:08.055Z,-0.14
2019-01-20T00:41:35.150Z,-0.14
2019-01-20T00:42:01.260Z,-0.06
2019-01-20T00:42:27.367Z,-0.11
2019-01-20T00:42:53.496Z,-0.07
2019-01-20T00:43:19.603Z,-0.08
2019-01-20T00:43:45.702Z,-0.02
2019-01-20T00:44:11.805Z,-0.13
2019-01-20T00:44:37.908Z,-0.06
2019-01-20T00:45:04.161Z,-0.1
2019-01-20T00:45:30.245Z,-0.15
2019-01-20T00:45:56.345Z,-0.13
2019-01-20T00:46:22.841Z,-0.14
2019-01-20T00:46:48.947Z,-0.03
2019-01-20T00:47:15.052Z,-0.06
2019-01-20T00:47:41.152Z,0.01
2019-01-20T00:48:07.255Z,0.04
2019-01-20T00:48:33.350Z,0.05
2019-01-20T00:48:59.452Z,0.1
2019-01-20T00:49:25.558Z,0.04
2019-01-20T00:49:51.662Z,0.07
2019-01-20T00:50:17.766Z,0.08
2019-01-20T00:50:43.865Z,0.08
2019-01-20T00:51:09.970Z,0.1
2019-01-20T00:51:36.096Z,0.04
2019-01-20T00:52:02.354Z,0.05
2019-01-20T00:52:28.333Z,0.08
2019-01-20T00:52:54.490Z,0.1
2019-01-20T00:53:20.807Z,0.07
2019-01-20T00:53:46.960Z,0.05
2019-01-20T00:54:13.061Z,0
2019-01-20T00:54:39.166Z,0.04
2019-01-20T00:55:05.265Z,-0.06
2019-01-20T00:55:31.379Z,-0.02
2019-01-20T00:55:57.474Z,-0.11
2019-01-20T00:56:23.578Z,-0.14
2019-01-20T00:56:49.680Z,-0.07
2019-01-20T00:57:15.788Z,-0.08
2019-01-20T00:57:41.887Z,-0.1
2019-01-20T00:58:08.029Z,-0.06
2019-01-20T00:58:34.170Z,-0.06
2019-01-20T00:59:00.864Z,-0.03
2019-01-20T00:59:26.964Z,0.01
2019-01-20T00:59:53.096Z,0.04
2019-01-20T01:00:19.219Z,0.05
2019-01-20T01:00:45.319Z,0.18
2019-01-20T01:01:12.410Z,0.16
2019-01-20T01:01:38.539Z,0.12
2019-01-20T01:02:04.636Z,0.1
2019-01-20T01:02:30.737Z,0.15
2019-01-20T01:02:56.841Z,0.19
2019-01-20T01:03:22.940Z,0.16
2019-01-20T01:03:49.041Z,0.21
2019-01-20T01:04:15.148Z,0.23
2019-01-20T01:04:41.248Z,0.22
2019-01-20T01:05:07.353Z,0.21
2019-01-20T01:05:33.495Z,0.21
2019-01-20T01:05:59.611Z,0.23
2019-01-20T01:06:25.707Z,0.16
2019-01-20T01:06:51.805Z,0.26
2019-01-20T01:07:17.911Z,0.19
2019-01-20T01:07:45.009Z,0.22
2019-01-20T01:08:11.109Z,0.18
2019-01-20T01:08:37.202Z,0.16
2019-01-20T01:09:03.310Z,0.26
2019-01-20T01:09:29.415Z,0.18
2019-01-20T01:09:55.521Z,0.25
2019-01-20T01:10:21.640Z,0.26
2019-01-20T01:10:47.747Z,0.23
2019-01-20T01:11:13.850Z,0.19
2019-01-20T01:11:40.968Z,0.26
2019-01-20T01:12:07.071Z,0.18
2019-01-20T01:12:33.170Z,0.22
2019-01-20T01:12:59.277Z,0.18
2019-01-20T01:13:25.376Z,0.21
2019-01-20T01:13:51.503Z,0.16
2019-01-20T01:14:17.609Z,0.19
2019-01-20T01:14:43.706Z,0.25
2019-01-20T01:15:09.807Z,0.18
2019-01-20T01:15:35.909Z,0.23
2019-01-20T01:16:02.013Z,0.21
2019-01-20T01:16:28.114Z,0.31
2019-01-20T01:16:54.223Z,0.19
2019-01-20T01:17:20.330Z,0.16
2019-01-20T01:17:46.437Z,0.15
2019-01-20T01:18:12.541Z,0.23
2019-01-20T01:18:38.644Z,0.19
2019-01-20T01:19:04.749Z,0.36
2019-01-20T01:19:30.874Z,0.19
2019-01-20T01:19:56.978Z,0.16
2019-01-20T01:20:23.073Z,0.18
2019-01-20T01:20:49.179Z,0.18
2019-01-20T01:21:15.285Z,0.31
2019-01-20T01:21:41.385Z,0.23
2019-01-20T01:22:07.482Z,0.26
2019-01-20T01:22:33.592Z,0.32
2019-01-20T01:22:59.692Z,0.31
2019-01-20T01:23:25.796Z,0.36
2019-01-20T01:23:51.895Z,0.36
2019-01-20T01:24:18.001Z,0.4
2019-01-20T01:24:44.104Z,0.37
2019-01-20T01:25:10.239Z,0.36
2019-01-20T01:25:36.369Z,0.32
2019-01-20T01:26:02.473Z,0.4
2019-01-20T01:26:28.579Z,0.4
2019-01-20T01:26:54.685Z,0.39
2019-01-20T01:27:20.814Z,0.43
2019-01-20T01:27:46.915Z,0.39
2019-01-20T01:28:13.040Z,0.36
2019-01-20T01:28:39.146Z,0.36
2019-01-20T01:29:05.251Z,0.37
2019-01-20T01:29:31.355Z,0.36
2019-01-20T01:29:57.457Z,0.46
2019-01-20T01:30:23.614Z,0.43
2019-01-20T01:30:49.718Z,0.56
2019-01-20T01:31:15.849Z,0.49
2019-01-20T01:31:41.949Z,0.49
2019-01-20T01:32:08.077Z,0.46
2019-01-20T01:32:34.184Z,0.55
2019-01-20T01:33:00.293Z,0.52
2019-01-20T01:33:26.392Z,0.56
2019-01-20T01:33:52.490Z,0.37
2019-01-20T01:34:18.597Z,0.5
2019-01-20T01:34:44.706Z,0.47
2019-01-20T01:35:10.805Z,0.49
2019-01-20T01:35:36.910Z,0.52
2019-01-20T01:36:03.005Z,0.58
2019-01-20T01:36:29.109Z,0.56
2019-01-20T01:36:55.244Z,0.46
2019-01-20T01:37:21.366Z,0.44
2019-01-20T01:37:47.466Z,0.44
2019-01-20T01:38:13.633Z,0.52
2019-01-20T01:38:39.731Z,0.55
2019-01-20T01:39:05.833Z,0.5
2019-01-20T01:39:31.934Z,0.46
2019-01-20T01:39:58.036Z,0.39
2019-01-20T01:40:24.171Z,0.41
2019-01-20T01:40:50.304Z,0.41
2019-01-20T01:41:16.407Z,0.46
2019-01-20T01:41:44.417Z,0.46
2019-01-20T01:42:10.513Z,0.37
2019-01-20T01:42:36.622Z,0.4
2019-01-20T01:43:02.717Z,0.44
2019-01-20T01:43:28.821Z,0.39
2019-01-20T01:43:54.952Z,0.49
2019-01-20T01:44:21.061Z,0.46
2019-01-20T01:44:47.159Z,0.43
2019-01-20T01:45:13.262Z,0.37
2019-01-20T01:45:39.393Z,0.34
2019-01-20T01:46:05.498Z,0.41
2019-01-20T01:46:31.598Z,0.34
2019-01-20T01:46:57.697Z,0.36
2019-01-20T01:47:23.796Z,0.36
2019-01-20T01:47:50.106Z,0.36
2019-01-20T01:48:16.208Z,0.4
2019-01-20T01:48:42.304Z,0.39
2019-01-20T01:49:08.408Z,0.41
2019-01-20T01:49:34.512Z,0.36
2019-01-20T01:50:00.617Z,0.32
2019-01-20T01:50:26.726Z,0.34
2019-01-20T01:50:52.855Z,0.4
2019-01-20T01:51:18.960Z,0.36
2019-01-20T01:51:45.064Z,0.41
2019-01-20T01:52:11.155Z,0.34
2019-01-20T01:52:37.258Z,0.41
2019-01-20T01:53:03.356Z,0.32
2019-01-20T01:53:29.494Z,0.37
2019-01-20T01:53:55.595Z,0.29
2019-01-20T01:54:21.725Z,0.29
2019-01-20T01:54:47.824Z,0.39
2019-01-20T01:55:13.931Z,0.36
2019-01-20T01:55:40.032Z,0.31
2019-01-20T01:56:06.133Z,0.29
2019-01-20T01:56:32.263Z,0.36
2019-01-20T01:56:58.365Z,0.36
2019-01-20T01:57:24.468Z,0.37
2019-01-20T01:57:50.567Z,0.34
2019-01-20T01:58:16.668Z,0.39
2019-01-20T01:58:42.772Z,0.49
2019-01-20T01:59:08.873Z,0.5
2019-01-20T01:59:34.980Z,0.47
2019-01-20T02:00:01.078Z,0.55
2019-01-20T02:00:27.207Z,0.56
2019-01-20T02:00:53.305Z,0.5
2019-01-20T02:01:19.413Z,0.52
2019-01-20T02:01:45.515Z,0.52
2019-01-20T02:02:11.618Z,0.55
2019-01-20T02:02:37.729Z,0.62
2019-01-20T02:03:03.824Z,0.56
2019-01-20T02:03:29.950Z,0.49
2019-01-20T02:03:56.055Z,0.59
2019-01-20T02:04:22.158Z,0.6
2019-01-20T02:04:48.257Z,0.62
2019-01-20T02:05:14.363Z,0.63
2019-01-20T02:05:40.461Z,0.65
2019-01-20T02:06:06.573Z,0.62
2019-01-20T02:06:32.673Z,0.65
2019-01-20T02:06:58.774Z,0.6
2019-01-20T02:07:24.880Z,0.5
2019-01-20T02:07:50.990Z,0.66
2019-01-20T02:08:17.149Z,0.62
2019-01-20T02:08:43.258Z,0.63
2019-01-20T02:09:09.361Z,0.58
2019-01-20T02:09:35.467Z,0.46
2019-01-20T02:10:01.571Z,0.47
2019-01-20T02:10:27.670Z,0.52
2019-01-20T02:10:53.774Z,0.47
2019-01-20T02:11:19.913Z,0.58
2019-01-20T02:11:47.203Z,0.6
2019-01-20T02:12:13.276Z,0.47
2019-01-20T02:12:39.366Z,0.52
2019-01-20T02:13:05.472Z,0.56
2019-01-20T02:13:31.578Z,0.52
2019-01-20T02:13:57.684Z,0.58
2019-01-20T02:14:23.786Z,0.49
2019-01-20T02:14:49.887Z,0.62
2019-01-20T02:15:16.022Z,0.47
2019-01-20T02:15:42.123Z,0.52
2019-01-20T02:16:08.228Z,0.52
2019-01-20T02:16:34.331Z,0.43
2019-01-20T02:17:00.431Z,0.6
2019-01-20T02:17:26.564Z,0.52
2019-01-20T02:17:52.670Z,0.6
2019-01-20T02:18:18.778Z,0.55
2019-01-20T02:18:44.905Z,0.55
2019-01-20T02:19:11.011Z,0.52
2019-01-20T02:19:37.111Z,0.49
2019-01-20T02:20:03.220Z,0.5
2019-01-20T02:20:29.323Z,0.56
2019-01-20T02:20:55.427Z,0.59
2019-01-20T02:21:21.559Z,0.69
2019-01-20T02:21:47.658Z,0.69
2019-01-20T02:22:13.762Z,0.73
2019-01-20T02:22:39.865Z,0.77
2019-01-20T02:23:05.973Z,0.63
2019-01-20T02:23:32.081Z,0.76
2019-01-20T02:23:58.203Z,0.68
2019-01-20T02:24:24.307Z,0.65
2019-01-20T02:24:50.410Z,0.65
2019-01-20T02:25:16.511Z,0.68
2019-01-20T02:25:42.618Z,0.76
2019-01-20T02:26:08.718Z,0.86
2019-01-20T02:26:34.819Z,0.84
2019-01-20T02:27:00.917Z,0.7
2019-01-20T02:27:27.050Z,0.8
2019-01-20T02:27:53.155Z,0.68
2019-01-20T02:28:19.288Z,0.81
2019-01-20T02:28:45.396Z,0.7
2019-01-20T02:29:11.498Z,0.84
2019-01-20T02:29:37.610Z,0.81
2019-01-20T02:30:03.711Z,0.78
2019-01-20T02:30:29.812Z,0.78
2019-01-20T02:30:55.967Z,0.78
2019-01-20T02:31:22.123Z,0.77
2019-01-20T02:31:48.228Z,0.88
2019-01-20T02:32:14.386Z,0.81
2019-01-20T02:32:40.523Z,0.86
2019-01-20T02:33:06.712Z,0.91
2019-01-20T02:33:32.807Z,0.96
2019-01-20T02:33:58.925Z,0.95
2019-01-20T02:34:25.071Z,0.98
2019-01-20T02:34:51.199Z,1.02
2019-01-20T02:35:17.358Z,1.04
2019-01-20T02:35:43.488Z,0.99
2019-01-20T02:36:09.613Z,1.01
2019-01-20T02:36:35.711Z,1.02
2019-01-20T02:37:01.815Z,1.02
2019-01-20T02:37:27.916Z,0.99
2019-01-20T02:37:54.045Z,1.05
2019-01-20T02:38:20.151Z,0.99
2019-01-20T02:38:46.300Z,0.95
2019-01-20T02:39:12.397Z,1.01
2019-01-20T02:39:38.559Z,1.01
2019-01-20T02:40:04.680Z,0.99
2019-01-20T02:40:30.790Z,1.02
2019-01-20T02:40:56.892Z,1.02
2019-01-20T02:41:23.001Z,1.05
2019-01-20T02:41:54.984Z,1.01
2019-01-20T02:42:16.223Z,1.06
2019-01-20T02:42:42.464Z,1.04
2019-01-20T02:43:08.568Z,0.96
2019-01-20T02:43:34.667Z,0.96
2019-01-20T02:44:00.810Z,0.91
2019-01-20T02:44:26.960Z,0.87
2019-01-20T02:44:53.079Z,0.83
2019-01-20T02:45:19.218Z,0.78
2019-01-20T02:45:45.317Z,0.8
2019-01-20T02:46:11.428Z,0.77
2019-01-20T02:46:37.531Z,0.77
2019-01-20T02:47:03.631Z,0.81
2019-01-20T02:47:29.764Z,0.78
2019-01-20T02:47:55.865Z,0.69
2019-01-20T02:48:21.990Z,0.76
2019-01-20T02:48:48.093Z,0.74
2019-01-20T02:49:14.198Z,0.65
2019-01-20T02:49:40.299Z,0.74
2019-01-20T02:50:06.397Z,0.68
2019-01-20T02:50:32.522Z,0.65
2019-01-20T02:50:58.632Z,0.59
2019-01-20T02:51:24.769Z,0.66
2019-01-20T02:51:50.899Z,0.63
2019-01-20T02:52:17.003Z,0.65
2019-01-20T02:52:43.120Z,0.68
2019-01-20T02:53:09.240Z,0.76
2019-01-20T02:53:35.344Z,0.62
2019-01-20T02:54:01.449Z,0.73
2019-01-20T02:54:27.554Z,0.68
2019-01-20T02:54:53.657Z,0.59
2019-01-20T02:55:19.789Z,0.55
2019-01-20T02:55:45.882Z,0.59
2019-01-20T02:56:11.984Z,0.63
2019-01-20T02:56:38.086Z,0.59
2019-01-20T02:57:04.212Z,0.59
2019-01-20T02:57:30.317Z,0.65
2019-01-20T02:57:56.416Z,0.73
2019-01-20T02:58:23.006Z,0.62
2019-01-20T02:58:49.111Z,0.68
2019-01-20T02:59:15.216Z,0.69
2019-01-20T02:59:41.318Z,0.69
2019-01-20T03:00:07.445Z,0.69
2019-01-20T03:00:33.534Z,0.76
2019-01-20T03:00:59.668Z,0.68
2019-01-20T03:01:25.772Z,0.76
2019-01-20T03:01:51.876Z,0.83
2019-01-20T03:02:17.977Z,0.84
2019-01-20T03:02:44.075Z,0.78
2019-01-20T03:03:10.185Z,0.81
2019-01-20T03:03:36.285Z,0.84
2019-01-20T03:04:02.447Z,0.8
2019-01-20T03:04:28.601Z,0.8
2019-01-20T03:04:54.745Z,0.83
2019-01-20T03:05:20.847Z,0.84
2019-01-20T03:05:46.952Z,0.78
2019-01-20T03:06:13.054Z,0.78
2019-01-20T03:06:39.181Z,0.92
2019-01-20T03:07:05.282Z,0.92
2019-01-20T03:07:31.413Z,0.92
2019-01-20T03:07:57.516Z,0.92
2019-01-20T03:08:23.647Z,0.96
2019-01-20T03:08:49.780Z,0.98
2019-01-20T03:09:15.973Z,0.96
2019-01-20T03:09:42.127Z,0.92
2019-01-20T03:10:08.232Z,1.04
2019-01-20T03:10:34.364Z,0.99
2019-01-20T03:11:00.468Z,1.04
2019-01-20T03:11:26.567Z,1.05
2019-01-20T03:11:52.667Z,0.98
2019-01-20T03:12:19.759Z,0.98
2019-01-20T03:12:45.888Z,1.01
2019-01-20T03:13:12.000Z,0.98
2019-01-20T03:13:38.109Z,1.01
2019-01-20T03:14:04.235Z,1.05
2019-01-20T03:14:30.334Z,1.06
2019-01-20T03:14:56.437Z,1.06
2019-01-20T03:15:22.567Z,1.05
2019-01-20T03:15:49.655Z,1.06
2019-01-20T03:16:15.760Z,1.02
2019-01-20T03:16:41.850Z,1.05
2019-01-20T03:17:07.981Z,1.05
2019-01-20T03:17:34.080Z,0.98
2019-01-20T03:18:00.188Z,0.95
2019-01-20T03:18:26.374Z,0.98
2019-01-20T03:18:52.475Z,0.96
2019-01-20T03:19:18.607Z,0.99
2019-01-20T03:19:44.709Z,1.05
2019-01-20T03:20:10.806Z,1.05
2019-01-20T03:20:36.946Z,1.06
2019-01-20T03:21:03.100Z,0.98
2019-01-20T03:21:29.205Z,0.95
2019-01-20T03:21:55.306Z,0.99
2019-01-20T03:22:21.413Z,0.99
2019-01-20T03:22:47.519Z,0.99
2019-01-20T03:23:13.622Z,0.94
2019-01-20T03:23:39.748Z,1.01
2019-01-20T03:24:05.879Z,1.05
2019-01-20T03:24:31.975Z,1.01
2019-01-20T03:24:58.109Z,0.98
2019-01-20T03:25:24.216Z,1.1
2019-01-20T03:25:50.346Z,1.17
2019-01-20T03:26:16.474Z,1.1
2019-01-20T03:26:42.579Z,1.08
2019-01-20T03:27:08.682Z,1.1
2019-01-20T03:27:34.785Z,1.12
2019-01-20T03:28:00.922Z,1.12
2019-01-20T03:28:27.046Z,1.12
2019-01-20T03:28:53.155Z,1.06
2019-01-20T03:29:19.253Z,1.13
2019-01-20T03:29:45.384Z,1.1
2019-01-20T03:30:11.501Z,1.13
2019-01-20T03:30:37.603Z,1.12
2019-01-20T03:31:03.709Z,1.13
2019-01-20T03:31:29.885Z,1.13
2019-01-20T03:31:56.038Z,1.14
2019-01-20T03:32:22.202Z,1.06
2019-01-20T03:32:48.301Z,1.04
2019-01-20T03:33:14.484Z,1.08
2019-01-20T03:33:40.638Z,1.17
2019-01-20T03:34:06.738Z,1.1
2019-01-20T03:34:32.846Z,1.1
2019-01-20T03:34:58.948Z,1.12
2019-01-20T03:35:25.050Z,1.02
2019-01-20T03:35:51.148Z,1.02
2019-01-20T03:36:17.250Z,1.2
2019-01-20T03:36:43.378Z,1.14
2019-01-20T03:37:09.480Z,1.08
2019-01-20T03:37:35.587Z,1.14
2019-01-20T03:38:01.692Z,1.06
2019-01-20T03:38:27.821Z,1.1
2019-01-20T03:38:53.923Z,1.14
2019-01-20T03:39:20.031Z,1.13
2019-01-20T03:39:46.131Z,1.13
2019-01-20T03:40:12.230Z,1.14
2019-01-20T03:40:38.394Z,1.1
2019-01-20T03:41:04.519Z,1.05
2019-01-20T03:41:30.626Z,1.08
2019-01-20T03:41:56.756Z,1.14
2019-01-20T03:42:23.849Z,1.14
2019-01-20T03:42:49.951Z,1.14
2019-01-20T03:43:16.053Z,1.1
2019-01-20T03:43:42.183Z,1.08
2019-01-20T03:44:08.289Z,1.08
2019-01-20T03:44:34.395Z,1.05
2019-01-20T03:45:00.531Z,1.22
2019-01-20T03:45:26.642Z,1.16
2019-01-20T03:45:52.767Z,1.14
2019-01-20T03:46:18.869Z,1.12
2019-01-20T03:46:44.967Z,1.08
2019-01-20T03:47:11.076Z,1.08
2019-01-20T03:47:37.226Z,1.13
2019-01-20T03:48:03.381Z,1.1
2019-01-20T03:48:29.482Z,1.06
2019-01-20T03:48:55.638Z,1.1
2019-01-20T03:49:21.741Z,0.99
2019-01-20T03:49:47.849Z,1.04
2019-01-20T03:50:13.946Z,1.04
2019-01-20T03:50:40.089Z,1.01
2019-01-20T03:51:06.209Z,0.98
2019-01-20T03:51:32.370Z,0.95
2019-01-20T03:51:58.469Z,0.95
2019-01-20T03:52:24.562Z,0.83
2019-01-20T03:52:50.722Z,0.8
2019-01-20T03:53:16.824Z,0.73
2019-01-20T03:53:42.931Z,0.74
2019-01-20T03:54:09.033Z,0.78
2019-01-20T03:54:35.164Z,0.73
2019-01-20T03:55:01.290Z,0.77
2019-01-20T03:55:27.397Z,0.69
2019-01-20T03:55:53.505Z,0.65
2019-01-20T03:56:19.605Z,0.69
2019-01-20T03:56:45.712Z,0.7
2019-01-20T03:57:11.826Z,0.66
2019-01-20T03:57:37.954Z,0.7
2019-01-20T03:58:04.111Z,0.65
2019-01-20T03:58:30.233Z,0.59
2019-01-20T03:58:56.337Z,0.58
2019-01-20T03:59:22.445Z,0.58
2019-01-20T03:59:48.579Z,0.62
2019-01-20T04:00:14.680Z,0.46
2019-01-20T04:00:40.786Z,0.47
2019-01-20T04:01:06.923Z,0.41
2019-01-20T04:01:33.110Z,0.39
2019-01-20T04:01:59.287Z,0.39
2019-01-20T04:02:25.393Z,0.37
2019-01-20T04:02:51.493Z,0.37
2019-01-20T04:03:17.619Z,0.43
2019-01-20T04:03:43.754Z,0.41
2019-01-20T04:04:09.886Z,0.43
2019-01-20T04:04:35.990Z,0.41
2019-01-20T04:05:02.098Z,0.47
2019-01-20T04:05:28.267Z,0.44
2019-01-20T04:05:54.370Z,0.47
2019-01-20T04:06:20.470Z,0.47
2019-01-20T04:06:46.604Z,0.56
2019-01-20T04:07:12.731Z,0.49
2019-01-20T04:07:38.837Z,0.5
2019-01-20T04:08:04.972Z,0.59
2019-01-20T04:08:31.069Z,0.5
2019-01-20T04:08:57.167Z,0.5
2019-01-20T04:09:23.265Z,0.56
2019-01-20T04:09:49.366Z,0.44
2019-01-20T04:10:15.495Z,0.39
2019-01-20T04:10:41.591Z,0.37
2019-01-20T04:11:07.693Z,0.4
2019-01-20T04:11:33.799Z,0.34
2019-01-20T04:11:59.929Z,0.32
2019-01-20T04:12:27.045Z,0.19
2019-01-20T04:12:53.150Z,0.32
2019-01-20T04:13:19.244Z,0.16
2019-01-20T04:13:45.372Z,0.29
2019-01-20T04:14:11.505Z,0.19
2019-01-20T04:14:37.606Z,0.26
2019-01-20T04:15:03.709Z,0.23
2019-01-20T04:15:29.811Z,0.22
2019-01-20T04:15:55.914Z,0.22
2019-01-20T04:16:22.028Z,0.16
2019-01-20T04:16:48.133Z,0.16
2019-01-20T04:17:14.235Z,0.21
2019-01-20T04:17:40.374Z,0.11
2019-01-20T04:18:06.498Z,0.15
2019-01-20T04:18:32.595Z,0.16
2019-01-20T04:18:58.722Z,0.18
2019-01-20T04:19:24.822Z,0.15
2019-01-20T04:19:50.924Z,0.18
2019-01-20T04:20:17.034Z,0.16
2019-01-20T04:20:43.171Z,0.16
2019-01-20T04:21:09.286Z,0.18
2019-01-20T04:21:35.410Z,0.08
2019-01-20T04:22:01.530Z,0.15
2019-01-20T04:22:27.650Z,0.12
2019-01-20T04:22:53.737Z,0.1
2019-01-20T04:23:19.869Z,0.21
2019-01-20T04:23:45.998Z,0.05
2019-01-20T04:24:12.128Z,0.12
2019-01-20T04:24:38.235Z,0.18
2019-01-20T04:25:04.334Z,0.15
2019-01-20T04:25:30.435Z,0.12
2019-01-20T04:25:56.541Z,0.07
2019-01-20T04:26:22.636Z,0.01
2019-01-20T04:26:48.765Z,-0.07
2019-01-20T04:27:14.907Z,0.03
2019-01-20T04:27:40.998Z,0.04
2019-01-20T04:28:07.105Z,-0.07
2019-01-20T04:28:33.210Z,-0.11
2019-01-20T04:28:59.340Z,-0.07
2019-01-20T04:29:25.479Z,-0.06
2019-01-20T04:29:51.584Z,-0.07
2019-01-20T04:30:17.741Z,-0.03
2019-01-20T04:30:43.850Z,-0.08
2019-01-20T04:31:09.949Z,-0.1
2019-01-20T04:31:36.051Z,-0.11
2019-01-20T04:32:02.154Z,-0.08
2019-01-20T04:32:28.294Z,-0.07
2019-01-20T04:32:54.389Z,-0.07
2019-01-20T04:33:20.547Z,-0.07
2019-01-20T04:33:46.672Z,-0.11
2019-01-20T04:34:12.813Z,-0.13
2019-01-20T04:34:38.961Z,-0.1
2019-01-20T04:35:05.096Z,-0.14
2019-01-20T04:35:31.227Z,-0.07
2019-01-20T04:35:57.383Z,-0.15
2019-01-20T04:36:23.484Z,-0.11
2019-01-20T04:36:49.619Z,-0.13
2019-01-20T04:37:15.722Z,-0.1
2019-01-20T04:37:41.875Z,-0.18
2019-01-20T04:38:07.978Z,-0.25
2019-01-20T04:38:34.108Z,-0.11
2019-01-20T04:39:00.214Z,-0.28
2019-01-20T04:39:26.350Z,-0.23
2019-01-20T04:39:52.484Z,-0.26
2019-01-20T04:40:18.586Z,-0.21
2019-01-20T04:40:44.690Z,-0.18
2019-01-20T04:41:10.820Z,-0.23
2019-01-20T04:41:36.928Z,-0.29
2019-01-20T04:42:03.076Z,-0.29
2019-01-20T04:42:30.168Z,-0.26
2019-01-20T04:42:56.330Z,-0.32
2019-01-20T04:43:22.432Z,-0.31
2019-01-20T04:43:48.527Z,-0.35
2019-01-20T04:44:14.692Z,-0.38
2019-01-20T04:44:40.793Z,-0.38
2019-01-20T04:45:06.902Z,-0.43
2019-01-20T04:45:32.995Z,-0.46
2019-01-20T04:45:59.099Z,-0.35
2019-01-20T04:46:25.206Z,-0.38
2019-01-20T04:46:51.309Z,-0.35
2019-01-20T04:47:17.415Z,-0.32
2019-01-20T04:47:43.517Z,-0.32
2019-01-20T04:48:09.645Z,-0.41
2019-01-20T04:48:35.750Z,-0.39
2019-01-20T04:49:01.845Z,-0.31
2019-01-20T04:49:27.948Z,-0.35
2019-01-20T04:49:54.058Z,-0.34
2019-01-20T04:50:20.156Z,-0.29
2019-01-20T04:50:46.263Z,-0.39
2019-01-20T04:51:12.363Z,-0.36
2019-01-20T04:51:38.472Z,-0.38
2019-01-20T04:52:04.598Z,-0.38
2019-01-20T04:52:30.699Z,-0.44
2019-01-20T04:52:57.318Z,-0.39
2019-01-20T04:53:23.479Z,-0.43
2019-01-20T04:53:49.615Z,-0.38
2019-01-20T04:54:15.711Z,-0.35
2019-01-20T04:54:41.807Z,-0.36
2019-01-20T04:55:07.994Z,-0.35
2019-01-20T04:55:34.037Z,-0.39
2019-01-20T04:56:00.147Z,-0.41
2019-01-20T04:56:26.243Z,-0.36
2019-01-20T04:56:52.428Z,-0.39
2019-01-20T04:57:18.525Z,-0.43
2019-01-20T04:57:44.653Z,-0.36
2019-01-20T04:58:10.762Z,-0.35
2019-01-20T04:58:36.861Z,-0.36
2019-01-20T04:59:02.996Z,-0.34
2019-01-20T04:59:29.090Z,-0.34
2019-01-20T04:59:55.966Z,-0.39
2019-01-20T05:00:22.102Z,-0.41
2019-01-20T05:00:48.258Z,-0.35
2019-01-20T05:01:14.418Z,-0.38
2019-01-20T05:01:40.527Z,-0.36
2019-01-20T05:02:06.631Z,-0.26
2019-01-20T05:02:32.744Z,-0.29
2019-01-20T05:02:58.897Z,-0.29
2019-01-20T05:03:25.036Z,-0.25
2019-01-20T05:03:51.163Z,-0.25
2019-01-20T05:04:17.260Z,-0.25
2019-01-20T05:04:43.404Z,-0.29
2019-01-20T05:05:09.541Z,-0.21
2019-01-20T05:05:35.648Z,-0.2
2019-01-20T05:06:01.776Z,-0.29
2019-01-20T05:06:27.886Z,-0.1
2019-01-20T05:06:54.011Z,-0.17
2019-01-20T05:07:20.122Z,-0.11
2019-01-20T05:07:46.248Z,-0.1
2019-01-20T05:08:12.350Z,-0.07
2019-01-20T05:08:38.451Z,-0.08
2019-01-20T05:09:04.549Z,-0.13
2019-01-20T05:09:30.649Z,-0.06
2019-01-20T05:09:56.751Z,0.04
2019-01-20T05:10:22.882Z,0.08
2019-01-20T05:10:48.989Z,0.18
2019-01-20T05:11:15.118Z,0.07
2019-01-20T05:11:41.245Z,0.08
2019-01-20T05:12:07.353Z,0.11
2019-01-20T05:12:37.658Z,0.15
2019-01-20T05:13:00.551Z,0.21
2019-01-20T05:13:26.642Z,0.26
2019-01-20T05:13:52.757Z,0.21
2019-01-20T05:14:18.861Z,0.22
2019-01-20T05:14:44.968Z,0.21
2019-01-20T05:15:11.068Z,0.31
2019-01-20T05:15:37.225Z,0.21
2019-01-20T05:16:03.357Z,0.18
2019-01-20T05:16:29.459Z,0.18
2019-01-20T05:16:55.591Z,0.32
2019-01-20T05:17:21.708Z,0.16
2019-01-20T05:17:47.813Z,0.25
2019-01-20T05:18:13.923Z,0.26
2019-01-20T05:18:40.026Z,0.32
2019-01-20T05:19:06.128Z,0.32
2019-01-20T05:19:32.233Z,0.4
2019-01-20T05:19:58.334Z,0.37
2019-01-20T05:20:24.461Z,0.34
2019-01-20T05:20:50.563Z,0.4
2019-01-20T05:21:16.695Z,0.32
2019-01-20T05:21:42.794Z,0.34
2019-01-20T05:22:08.900Z,0.41
2019-01-20T05:22:35.012Z,0.34
2019-01-20T05:23:01.137Z,0.41
2019-01-20T05:23:27.245Z,0.4
2019-01-20T05:23:53.339Z,0.34
2019-01-20T05:24:19.447Z,0.36
2019-01-20T05:24:45.554Z,0.41
2019-01-20T05:25:11.654Z,0.46
2019-01-20T05:25:37.751Z,0.43
2019-01-20T05:26:03.856Z,0.52
2019-01-20T05:26:29.957Z,0.49
2019-01-20T05:26:56.060Z,0.43
2019-01-20T05:27:22.172Z,0.52
2019-01-20T05:27:48.267Z,0.46
2019-01-20T05:28:14.374Z,0.56
2019-01-20T05:28:40.486Z,0.49
2019-01-20T05:29:06.586Z,0.49
2019-01-20T05:29:32.732Z,0.5
2019-01-20T05:29:58.861Z,0.49
2019-01-20T05:30:24.997Z,0.49
2019-01-20T05:30:51.153Z,0.52
2019-01-20T05:31:17.281Z,0.52
2019-01-20T05:31:43.380Z,0.41
2019-01-20T05:32:09.488Z,0.41
2019-01-20T05:32:35.619Z,0.49
2019-01-20T05:33:01.749Z,0.47
2019-01-20T05:33:27.867Z,0.52
2019-01-20T05:33:53.971Z,0.6
2019-01-20T05:34:20.074Z,0.46
2019-01-20T05:34:46.180Z,0.52
2019-01-20T05:35:12.296Z,0.52
2019-01-20T05:35:38.401Z,0.47
2019-01-20T05:36:04.537Z,0.55
2019-01-20T05:36:30.666Z,0.52
2019-01-20T05:36:56.770Z,0.5
2019-01-20T05:37:22.902Z,0.4
2019-01-20T05:37:49.078Z,0.49
2019-01-20T05:38:15.127Z,0.43
2019-01-20T05:38:41.232Z,0.49
2019-01-20T05:39:07.330Z,0.4
2019-01-20T05:39:33.439Z,0.49
2019-01-20T05:39:59.537Z,0.49
2019-01-20T05:40:26.629Z,0.49
2019-01-20T05:40:52.738Z,0.52
2019-01-20T05:41:18.836Z,0.44
2019-01-20T05:41:44.943Z,0.5
2019-01-20T05:42:11.051Z,0.59
2019-01-20T05:42:37.177Z,0.49
2019-01-20T05:43:04.270Z,0.59
2019-01-20T05:43:30.366Z,0.5
2019-01-20T05:43:56.467Z,0.65
2019-01-20T05:44:22.573Z,0.56
2019-01-20T05:44:48.706Z,0.65
2019-01-20T05:45:14.834Z,0.59
2019-01-20T05:45:40.961Z,0.68
2019-01-20T05:46:07.098Z,0.68
2019-01-20T05:46:33.194Z,0.62
2019-01-20T05:46:59.299Z,0.7